sensor_id;sensor_type;location;lat;lon;timestamp;pressure;altitude;pressure_sealevel;temperature;humidity
21623;BME280;10973;46.706;12.340;2023-04-01T00:00:06;86191.06;;;6.28;59.70
21623;BME280;10973;46.706;12.340;2023-04-01T00:02:34;86193.28;;;6.26;59.93
21623;BME280;10973;46.706;12.340;2023-04-01T00:05:01;86192.53;;;6.26;59.98
21623;BME280;10973;46.706;12.340;2023-04-01T00:07:28;86192.16;;;6.24;60.14
21623;BME280;10973;46.706;12.340;2023-04-01T00:09:57;86190.66;;;6.23;59.88
21623;BME280;10973;46.706;12.340;2023-04-01T00:12:24;86194.41;;;6.29;60.12
21623;BME280;10973;46.706;12.340;2023-04-01T00:14:52;86186.56;;;6.29;60.11
21623;BME280;10973;46.706;12.340;2023-04-01T00:17:19;86188.81;;;6.27;59.93
21623;BME280;10973;46.706;12.340;2023-04-01T00:19:46;86186.56;;;6.29;59.74
21623;BME280;10973;46.706;12.340;2023-04-01T00:22:14;86180.22;;;6.26;59.70
21623;BME280;10973;46.706;12.340;2023-04-01T00:24:41;86185.06;;;6.24;59.92
21623;BME280;10973;46.706;12.340;2023-04-01T00:27:08;86186.56;;;6.22;59.74
21623;BME280;10973;46.706;12.340;2023-04-01T00:29:36;86188.41;;;6.18;59.73
21623;BME280;10973;46.706;12.340;2023-04-01T00:32:03;86190.66;;;6.16;60.01
21623;BME280;10973;46.706;12.340;2023-04-01T00:34:30;86186.19;;;6.13;59.75
21623;BME280;10973;46.706;12.340;2023-04-01T00:36:57;86189.53;;;6.10;59.52
21623;BME280;10973;46.706;12.340;2023-04-01T00:39:25;86197.00;;;6.04;59.69
21623;BME280;10973;46.706;12.340;2023-04-01T00:41:52;86189.16;;;6.01;59.84
21623;BME280;10973;46.706;12.340;2023-04-01T00:44:24;86196.63;;;5.99;59.97
21623;BME280;10973;46.706;12.340;2023-04-01T00:46:52;86186.91;;;5.99;60.13
21623;BME280;10973;46.706;12.340;2023-04-01T00:49:27;86197.38;;;5.99;60.29
21623;BME280;10973;46.706;12.340;2023-04-01T00:51:59;86197.38;;;5.92;60.34
21623;BME280;10973;46.706;12.340;2023-04-01T00:54:29;86193.63;;;5.90;59.80
21623;BME280;10973;46.706;12.340;2023-04-01T00:57:10;86194.00;;;5.88;60.14
21623;BME280;10973;46.706;12.340;2023-04-01T00:59:49;86191.75;;;5.90;60.22
21623;BME280;10973;46.706;12.340;2023-04-01T01:02:18;86194.00;;;5.92;60.03
21623;BME280;10973;46.706;12.340;2023-04-01T01:04:46;86184.28;;;5.96;60.11
21623;BME280;10973;46.706;12.340;2023-04-01T01:15:44;86182.38;;;5.78;60.11
21623;BME280;10973;46.706;12.340;2023-04-01T01:18:26;86184.97;;;5.71;60.03
21623;BME280;10973;46.706;12.340;2023-04-01T01:35:49;86181.56;;;5.57;60.50
21623;BME280;10973;46.706;12.340;2023-04-01T01:38:23;86175.59;;;5.56;60.29
21623;BME280;10973;46.706;12.340;2023-04-01T01:40:55;86177.09;;;5.57;60.53
21623;BME280;10973;46.706;12.340;2023-04-01T01:43:30;86173.00;;;5.56;60.54
21623;BME280;10973;46.706;12.340;2023-04-01T01:46:02;86169.25;;;5.57;60.66
21623;BME280;10973;46.706;12.340;2023-04-01T01:48:35;86175.22;;;5.61;60.64
21623;BME280;10973;46.706;12.340;2023-04-01T01:51:06;86158.06;;;5.64;60.84
21623;BME280;10973;46.706;12.340;2023-04-01T01:53:34;86161.44;;;5.61;60.82
21623;BME280;10973;46.706;12.340;2023-04-01T01:56:02;86157.31;;;5.63;60.80
21623;BME280;10973;46.706;12.340;2023-04-01T01:58:40;86157.69;;;5.62;60.31
21623;BME280;10973;46.706;12.340;2023-04-01T02:01:18;86155.84;;;5.62;60.59
21623;BME280;10973;46.706;12.340;2023-04-01T02:03:48;86153.22;;;5.62;60.65
21623;BME280;10973;46.706;12.340;2023-04-01T02:06:22;86144.63;;;5.62;60.67
21623;BME280;10973;46.706;12.340;2023-04-01T02:09:00;86147.25;;;5.62;60.55
21623;BME280;10973;46.706;12.340;2023-04-01T02:11:40;86140.50;;;5.57;60.29
21623;BME280;10973;46.706;12.340;2023-04-01T02:14:16;86145.38;;;5.55;60.33
21623;BME280;10973;46.706;12.340;2023-04-01T02:17:02;86141.25;;;5.47;60.52
21623;BME280;10973;46.706;12.340;2023-04-01T02:19:42;86141.59;;;5.46;60.27
21623;BME280;10973;46.706;12.340;2023-04-01T02:22:18;86152.81;;;5.46;60.36
21623;BME280;10973;46.706;12.340;2023-04-01T02:24:49;86156.16;;;5.43;60.28
21623;BME280;10973;46.706;12.340;2023-04-01T02:27:17;86155.78;;;5.41;60.26
21623;BME280;10973;46.706;12.340;2023-04-01T02:29:44;86153.53;;;5.40;60.31
21623;BME280;10973;46.706;12.340;2023-04-01T02:32:14;86160.63;;;5.39;60.07
21623;BME280;10973;46.706;12.340;2023-04-01T02:34:42;86165.84;;;5.36;60.32
21623;BME280;10973;46.706;12.340;2023-04-01T02:37:12;86159.50;;;5.33;60.57
21623;BME280;10973;46.706;12.340;2023-04-01T02:39:40;86168.09;;;5.34;60.56
21623;BME280;10973;46.706;12.340;2023-04-01T02:42:08;86168.06;;;5.37;60.85
21623;BME280;10973;46.706;12.340;2023-04-01T02:44:35;86163.22;;;5.36;61.06
21623;BME280;10973;46.706;12.340;2023-04-01T02:47:03;86157.25;;;5.39;60.84
21623;BME280;10973;46.706;12.340;2023-04-01T02:49:30;86161.38;;;5.40;60.86
21623;BME280;10973;46.706;12.340;2023-04-01T02:51:58;86161.38;;;5.43;60.64
21623;BME280;10973;46.706;12.340;2023-04-01T02:54:25;86160.63;;;5.39;60.77
21623;BME280;10973;46.706;12.340;2023-04-01T02:56:52;86157.63;;;5.37;60.87
21623;BME280;10973;46.706;12.340;2023-04-01T02:59:20;86157.25;;;5.39;60.85
21623;BME280;10973;46.706;12.340;2023-04-01T03:01:47;86170.69;;;5.41;60.72
21623;BME280;10973;46.706;12.340;2023-04-01T03:04:14;86171.81;;;5.40;60.85
21623;BME280;10973;46.706;12.340;2023-04-01T03:06:41;86167.69;;;5.39;60.78
21623;BME280;10973;46.706;12.340;2023-04-01T03:09:08;86180.03;;;5.38;60.38
21623;BME280;10973;46.706;12.340;2023-04-01T03:11:36;86177.44;;;5.38;60.51
21623;BME280;10973;46.706;12.340;2023-04-01T03:14:03;86175.94;;;5.44;60.50
21623;BME280;10973;46.706;12.340;2023-04-01T03:16:30;86178.56;;;5.44;60.77
21623;BME280;10973;46.706;12.340;2023-04-01T03:18:57;86167.72;;;5.46;60.92
21623;BME280;10973;46.706;12.340;2023-04-01T03:21:26;86161.75;;;5.45;60.92
21623;BME280;10973;46.706;12.340;2023-04-01T03:23:53;86164.75;;;5.47;60.74
21623;BME280;10973;46.706;12.340;2023-04-01T03:26:20;86159.53;;;5.51;60.77
21623;BME280;10973;46.706;12.340;2023-04-01T03:28:47;86168.47;;;5.50;61.00
21623;BME280;10973;46.706;12.340;2023-04-01T03:31:15;86161.41;;;5.54;61.10
21623;BME280;10973;46.706;12.340;2023-04-01T03:33:42;86161.03;;;5.55;61.16
21623;BME280;10973;46.706;12.340;2023-04-01T03:36:10;86164.06;;;5.61;60.94
21623;BME280;10973;46.706;12.340;2023-04-01T03:38:39;86164.78;;;5.61;60.83
21623;BME280;10973;46.706;12.340;2023-04-01T03:41:06;86172.63;;;5.61;60.82
21623;BME280;10973;46.706;12.340;2023-04-01T03:43:34;86168.53;;;5.60;60.83
21623;BME280;10973;46.706;12.340;2023-04-01T03:46:01;86177.84;;;5.58;60.81
21623;BME280;10973;46.706;12.340;2023-04-01T03:48:28;86186.78;;;5.53;60.88
21623;BME280;10973;46.706;12.340;2023-04-01T03:50:55;86183.44;;;5.49;60.78
21623;BME280;10973;46.706;12.340;2023-04-01T03:53:23;86177.06;;;5.50;60.88
21623;BME280;10973;46.706;12.340;2023-04-01T03:55:50;86174.47;;;5.47;60.62
21623;BME280;10973;46.706;12.340;2023-04-01T03:58:17;86175.59;;;5.49;60.87
21623;BME280;10973;46.706;12.340;2023-04-01T04:00:45;86169.59;;;5.52;60.67
21623;BME280;10973;46.706;12.340;2023-04-01T04:03:13;86164.75;;;5.51;60.65
21623;BME280;10973;46.706;12.340;2023-04-01T04:05:49;86169.22;;;5.50;60.78
21623;BME280;10973;46.706;12.340;2023-04-01T04:08:17;86172.59;;;5.51;60.92
21623;BME280;10973;46.706;12.340;2023-04-01T04:10:45;86169.97;;;5.51;61.32
21623;BME280;10973;46.706;12.340;2023-04-01T04:13:12;86170.75;;;5.51;61.07
21623;BME280;10973;46.706;12.340;2023-04-01T04:15:39;86180.44;;;5.51;61.02
21623;BME280;10973;46.706;12.340;2023-04-01T04:18:06;86171.84;;;5.47;60.88
21623;BME280;10973;46.706;12.340;2023-04-01T04:20:34;86185.63;;;5.40;60.98
21623;BME280;10973;46.706;12.340;2023-04-01T04:23:01;86168.47;;;5.43;60.72
21623;BME280;10973;46.706;12.340;2023-04-01T04:25:28;86172.94;;;5.42;61.03
21623;BME280;10973;46.706;12.340;2023-04-01T04:27:55;86176.28;;;5.39;61.23
21623;BME280;10973;46.706;12.340;2023-04-01T04:30:22;86175.91;;;5.41;61.40
21623;BME280;10973;46.706;12.340;2023-04-01T04:32:50;86176.28;;;5.39;61.10
21623;BME280;10973;46.706;12.340;2023-04-01T04:35:17;86187.88;;;5.42;61.39
21623;BME280;10973;46.706;12.340;2023-04-01T04:37:44;86181.13;;;5.41;61.69
21623;BME280;10973;46.706;12.340;2023-04-01T04:40:11;86178.94;;;5.43;61.31
21623;BME280;10973;46.706;12.340;2023-04-01T04:42:39;86177.81;;;5.44;61.60
21623;BME280;10973;46.706;12.340;2023-04-01T04:45:06;86175.19;;;5.44;61.68
21623;BME280;10973;46.706;12.340;2023-04-01T04:47:33;86175.19;;;5.44;61.67
21623;BME280;10973;46.706;12.340;2023-04-01T04:50:01;86187.53;;;5.47;61.25
21623;BME280;10973;46.706;12.340;2023-04-01T04:52:28;86187.16;;;5.45;61.59
21623;BME280;10973;46.706;12.340;2023-04-01T04:54:55;86177.41;;;5.42;61.54
21623;BME280;10973;46.706;12.340;2023-04-01T04:57:22;86178.94;;;5.43;61.44
21623;BME280;10973;46.706;12.340;2023-04-01T04:59:50;86180.03;;;5.42;61.27
21623;BME280;10973;46.706;12.340;2023-04-01T05:02:17;86171.47;;;5.45;61.21
21623;BME280;10973;46.706;12.340;2023-04-01T05:04:45;86185.25;;;5.45;61.43
21623;BME280;10973;46.706;12.340;2023-04-01T05:07:12;86178.94;;;5.46;61.62
21623;BME280;10973;46.706;12.340;2023-04-01T05:09:39;86181.91;;;5.48;61.82
21623;BME280;10973;46.706;12.340;2023-04-01T05:12:07;86172.97;;;5.49;61.61
21623;BME280;10973;46.706;12.340;2023-04-01T05:14:34;86174.84;;;5.52;61.75
21623;BME280;10973;46.706;12.340;2023-04-01T05:17:01;86181.56;;;5.57;61.56
21623;BME280;10973;46.706;12.340;2023-04-01T05:19:28;86178.97;;;5.60;61.74
21623;BME280;10973;46.706;12.340;2023-04-01T05:21:56;86185.31;;;5.59;61.34
21623;BME280;10973;46.706;12.340;2023-04-01T05:24:23;86195.03;;;5.62;61.40
21623;BME280;10973;46.706;12.340;2023-04-01T05:26:53;86189.81;;;5.62;60.94
21623;BME280;10973;46.706;12.340;2023-04-01T05:29:24;86195.41;;;5.64;61.07
21623;BME280;10973;46.706;12.340;2023-04-01T05:31:51;86191.63;;;5.51;61.21
21623;BME280;10973;46.706;12.340;2023-04-01T05:34:19;86199.84;;;5.53;61.14
21623;BME280;10973;46.706;12.340;2023-04-01T05:36:46;86200.59;;;5.54;61.17
21623;BME280;10973;46.706;12.340;2023-04-01T05:39:13;86197.63;;;5.52;61.15
21623;BME280;10973;46.706;12.340;2023-04-01T05:41:40;86202.84;;;5.55;60.89
21623;BME280;10973;46.706;12.340;2023-04-01T05:44:11;86212.91;;;5.57;61.37
21623;BME280;10973;46.706;12.340;2023-04-01T05:46:40;86209.19;;;5.58;61.08
21623;BME280;10973;46.706;12.340;2023-04-01T05:49:07;86204.72;;;5.58;61.06
21623;BME280;10973;46.706;12.340;2023-04-01T05:51:34;86209.16;;;5.54;61.47
21623;BME280;10973;46.706;12.340;2023-04-01T05:54:04;86215.91;;;5.59;61.42
21623;BME280;10973;46.706;12.340;2023-04-01T05:56:31;86215.19;;;5.62;61.65
21623;BME280;10973;46.706;12.340;2023-04-01T05:58:59;86214.06;;;5.66;61.73
21623;BME280;10973;46.706;12.340;2023-04-01T06:01:26;86211.47;;;5.63;62.13
21623;BME280;10973;46.706;12.340;2023-04-01T06:03:53;86210.69;;;5.66;62.00
21623;BME280;10973;46.706;12.340;2023-04-01T06:06:27;86211.47;;;5.70;62.01
21623;BME280;10973;46.706;12.340;2023-04-01T06:08:58;86214.81;;;5.70;61.78
21623;BME280;10973;46.706;12.340;2023-04-01T06:17:41;86218.59;;;5.76;62.21
21623;BME280;10973;46.706;12.340;2023-04-01T06:26:11;86223.88;;;5.94;61.96
21623;BME280;10973;46.706;12.340;2023-04-01T06:35:38;86242.94;;;6.05;62.38
21623;BME280;10973;46.706;12.340;2023-04-01T06:38:39;86244.09;;;6.18;61.37
21623;BME280;10973;46.706;12.340;2023-04-01T06:41:39;86245.97;;;6.21;60.34
21623;BME280;10973;46.706;12.340;2023-04-01T06:44:27;86245.22;;;6.28;60.05
21623;BME280;10973;46.706;12.340;2023-04-01T06:56:03;86256.03;;;6.16;58.92
21623;BME280;10973;46.706;12.340;2023-04-01T06:58:46;86252.31;;;6.17;58.81
21623;BME280;10973;46.706;12.340;2023-04-01T07:01:27;86247.06;;;6.13;59.26
21623;BME280;10973;46.706;12.340;2023-04-01T07:04:06;86256.06;;;6.26;59.10
21623;BME280;10973;46.706;12.340;2023-04-01T07:07:05;86256.81;;;6.30;58.69
21623;BME280;10973;46.706;12.340;2023-04-01T07:09:41;86257.59;;;6.38;59.04
21623;BME280;10973;46.706;12.340;2023-04-01T07:15:13;86246.75;;;6.61;58.77
21623;BME280;10973;46.706;12.340;2023-04-01T07:17:45;86247.88;;;6.67;58.71
21623;BME280;10973;46.706;12.340;2023-04-01T07:20:23;86255.72;;;6.70;58.48
21623;BME280;10973;46.706;12.340;2023-04-01T07:23:05;86253.09;;;6.77;59.00
21623;BME280;10973;46.706;12.340;2023-04-01T07:25:42;86247.50;;;6.82;59.00
21623;BME280;10973;46.706;12.340;2023-04-01T07:28:16;86254.59;;;6.82;58.92
21623;BME280;10973;46.706;12.340;2023-04-01T07:36:44;86254.56;;;7.20;58.40
21623;BME280;10973;46.706;12.340;2023-04-01T07:45:37;86265.72;;;7.53;57.48
21623;BME280;10973;46.706;12.340;2023-04-01T07:53:38;86270.19;;;7.70;59.00
21623;BME280;10973;46.706;12.340;2023-04-01T07:56:36;86275.72;;;7.86;58.17
21623;BME280;10973;46.706;12.340;2023-04-01T08:05:29;86277.19;;;7.94;54.25
21623;BME280;10973;46.706;12.340;2023-04-01T08:08:18;86271.19;;;7.93;54.27
21623;BME280;10973;46.706;12.340;2023-04-01T08:11:03;86277.19;;;8.01;54.47
21623;BME280;10973;46.706;12.340;2023-04-01T08:17:01;86276.38;;;8.11;53.77
21623;BME280;10973;46.706;12.340;2023-04-01T08:19:52;86275.59;;;8.21;53.00
21623;BME280;10973;46.706;12.340;2023-04-01T08:25:30;86273.28;;;8.37;52.04
21623;BME280;10973;46.706;12.340;2023-04-01T08:28:32;86271.00;;;8.46;52.73
21623;BME280;10973;46.706;12.340;2023-04-01T08:32:00;86269.84;;;8.51;51.50
21623;BME280;10973;46.706;12.340;2023-04-01T08:34:44;86271.31;;;8.55;51.41
21623;BME280;10973;46.706;12.340;2023-04-01T08:37:28;86262.28;;;8.56;51.44
21623;BME280;10973;46.706;12.340;2023-04-01T08:49:10;86281.09;;;8.51;49.62
21623;BME280;10973;46.706;12.340;2023-04-01T08:57:33;86275.69;;;8.73;50.51
21623;BME280;10973;46.706;12.340;2023-04-01T09:00:25;86283.88;;;8.82;50.20
21623;BME280;10973;46.706;12.340;2023-04-01T09:03:30;86278.22;;;8.90;50.40
21623;BME280;10973;46.706;12.340;2023-04-01T09:06:32;86279.66;;;8.98;49.81
21623;BME280;10973;46.706;12.340;2023-04-01T09:38:22;86278.56;;;9.40;48.67
21623;BME280;10973;46.706;12.340;2023-04-01T09:41:01;86286.41;;;9.44;48.55
21623;BME280;10973;46.706;12.340;2023-04-01T09:56:35;86273.44;;;9.67;47.01
21623;BME280;10973;46.706;12.340;2023-04-01T09:59:34;86271.91;;;9.69;46.38
21623;BME280;10973;46.706;12.340;2023-04-01T10:06:24;86269.50;;;9.82;46.25
21623;BME280;10973;46.706;12.340;2023-04-01T10:23:34;86257.44;;;10.22;44.42
21623;BME280;10973;46.706;12.340;2023-04-01T10:29:31;86252.03;;;10.89;42.09
21623;BME280;10973;46.706;12.340;2023-04-01T10:50:20;86227.34;;;19.86;26.45
21623;BME280;10973;46.706;12.340;2023-04-01T11:14:23;86207.94;;;20.42;24.37
21623;BME280;10973;46.706;12.340;2023-04-01T11:29:19;86210.53;;;17.71;23.86
21623;BME280;10973;46.706;12.340;2023-04-01T11:47:22;86206.81;;;15.87;26.12
21623;BME280;10973;46.706;12.340;2023-04-01T11:50:21;86198.91;;;15.74;26.10
21623;BME280;10973;46.706;12.340;2023-04-01T12:11:15;86201.91;;;15.00;26.40
21623;BME280;10973;46.706;12.340;2023-04-01T12:20:19;86200.28;;;14.08;27.95
21623;BME280;10973;46.706;12.340;2023-04-01T12:23:03;86201.13;;;13.76;29.29
21623;BME280;10973;46.706;12.340;2023-04-01T12:37:10;86214.38;;;12.76;29.40
21623;BME280;10973;46.706;12.340;2023-04-01T12:45:33;86221.63;;;12.36;31.44
21623;BME280;10973;46.706;12.340;2023-04-01T13:06:32;86220.91;;;11.96;35.88
21623;BME280;10973;46.706;12.340;2023-04-01T13:15:51;86210.41;;;13.52;32.38
21623;BME280;10973;46.706;12.340;2023-04-01T13:18:28;86207.59;;;13.43;30.74
21623;BME280;10973;46.706;12.340;2023-04-01T13:21:05;86210.50;;;13.32;30.04
21623;BME280;10973;46.706;12.340;2023-04-01T13:36:01;86205.88;;;12.84;35.75
21623;BME280;10973;46.706;12.340;2023-04-01T13:42:31;86186.97;;;13.02;35.81
21623;BME280;10973;46.706;12.340;2023-04-01T13:44:45;86193.78;;;13.03;35.07
21623;BME280;10973;46.706;12.340;2023-04-01T13:50:25;86195.16;;;12.92;36.15
21623;BME280;10973;46.706;12.340;2023-04-01T13:53:29;86199.09;;;12.83;32.99
21623;BME280;10973;46.706;12.340;2023-04-01T14:05:35;86186.16;;;12.89;43.18
21623;BME280;10973;46.706;12.340;2023-04-01T14:14:21;86180.63;;;14.21;33.21
21623;BME280;10973;46.706;12.340;2023-04-01T14:23:07;86175.03;;;14.86;37.65
21623;BME280;10973;46.706;12.340;2023-04-01T14:35:37;86160.94;;;15.14;33.29
21623;BME280;10973;46.706;12.340;2023-04-01T14:49:42;86144.00;;;16.79;26.98
21623;BME280;10973;46.706;12.340;2023-04-01T14:52:33;86145.03;;;17.03;26.10
21623;BME280;10973;46.706;12.340;2023-04-01T14:55:32;86136.78;;;17.20;25.07
21623;BME280;10973;46.706;12.340;2023-04-01T14:58:14;86144.91;;;17.16;26.14
21623;BME280;10973;46.706;12.340;2023-04-01T15:03:46;86143.25;;;16.79;29.94
21623;BME280;10973;46.706;12.340;2023-04-01T15:06:47;86140.81;;;16.41;27.48
21623;BME280;10973;46.706;12.340;2023-04-01T15:18:23;86145.19;;;15.32;32.90
21623;BME280;10973;46.706;12.340;2023-04-01T15:32:22;86149.16;;;16.09;27.03
21623;BME280;10973;46.706;12.340;2023-04-01T15:40:32;86167.28;;;14.79;31.21
21623;BME280;10973;46.706;12.340;2023-04-01T15:43:45;86172.16;;;14.26;32.70
21623;BME280;10973;46.706;12.340;2023-04-01T15:46:48;86166.53;;;13.83;31.38
21623;BME280;10973;46.706;12.340;2023-04-01T15:49:37;86172.69;;;13.48;32.12
21623;BME280;10973;46.706;12.340;2023-04-01T15:58:44;86163.72;;;13.74;31.74
21623;BME280;10973;46.706;12.340;2023-04-01T16:04:44;86153.28;;;14.53;30.06
21623;BME280;10973;46.706;12.340;2023-04-01T16:07:36;86161.53;;;14.55;29.37
21623;BME280;10973;46.706;12.340;2023-04-01T16:13:31;86159.19;;;14.03;28.63
21623;BME280;10973;46.706;12.340;2023-04-01T16:21:52;86162.66;;;13.72;29.83
21623;BME280;10973;46.706;12.340;2023-04-01T16:24:51;86166.81;;;13.40;30.73
21623;BME280;10973;46.706;12.340;2023-04-01T16:27:35;86163.53;;;13.20;31.39
21623;BME280;10973;46.706;12.340;2023-04-01T16:30:32;86165.16;;;12.98;31.53
21623;BME280;10973;46.706;12.340;2023-04-01T16:36:33;86177.50;;;12.53;33.92
21623;BME280;10973;46.706;12.340;2023-04-01T16:39:29;86185.06;;;12.35;37.99
21623;BME280;10973;46.706;12.340;2023-04-01T16:44:55;86187.59;;;12.02;37.76
21623;BME280;10973;46.706;12.340;2023-04-01T16:48:15;86186.97;;;11.95;38.61
21623;BME280;10973;46.706;12.340;2023-04-01T16:50:59;86187.94;;;11.85;40.24
21623;BME280;10973;46.706;12.340;2023-04-01T16:56:39;86186.47;;;11.61;40.65
21623;BME280;10973;46.706;12.340;2023-04-01T16:59:33;86200.91;;;11.53;40.99
21623;BME280;10973;46.706;12.340;2023-04-01T17:05:05;86200.47;;;11.34;41.55
21623;BME280;10973;46.706;12.340;2023-04-01T17:08:50;86206.94;;;11.30;42.01
21623;BME280;10973;46.706;12.340;2023-04-01T17:14:09;86212.88;;;11.14;41.66
21623;BME280;10973;46.706;12.340;2023-04-01T17:35:10;86233.97;;;10.61;43.45
21623;BME280;10973;46.706;12.340;2023-04-01T17:56:17;86261.69;;;10.08;44.75
21623;BME280;10973;46.706;12.340;2023-04-01T18:02:11;86263.75;;;9.90;44.37
21623;BME280;10973;46.706;12.340;2023-04-01T18:05:18;86271.75;;;9.83;44.40
21623;BME280;10973;46.706;12.340;2023-04-01T18:13:51;86287.00;;;9.62;44.96
21623;BME280;10973;46.706;12.340;2023-04-01T18:25:34;86297.41;;;9.31;45.20
21623;BME280;10973;46.706;12.340;2023-04-01T18:31:14;86307.69;;;9.12;45.89
21623;BME280;10973;46.706;12.340;2023-04-01T18:36:54;86314.19;;;8.97;46.44
21623;BME280;10973;46.706;12.340;2023-04-01T18:40:17;86319.47;;;8.93;46.41
21623;BME280;10973;46.706;12.340;2023-04-01T18:45:30;86329.28;;;8.86;46.50
21623;BME280;10973;46.706;12.340;2023-04-01T18:51:26;86332.75;;;8.72;47.78
21623;BME280;10973;46.706;12.340;2023-04-01T18:54:23;86335.38;;;8.72;47.82
21623;BME280;10973;46.706;12.340;2023-04-01T18:57:10;86333.09;;;8.74;47.53
21623;BME280;10973;46.706;12.340;2023-04-01T19:02:42;86336.88;;;8.70;46.81
21623;BME280;10973;46.706;12.340;2023-04-01T19:05:33;86339.50;;;8.66;47.14
21623;BME280;10973;46.706;12.340;2023-04-01T19:08:28;86336.91;;;8.63;47.30
21623;BME280;10973;46.706;12.340;2023-04-01T19:14:23;86346.69;;;8.58;46.69
21623;BME280;10973;46.706;12.340;2023-04-01T19:20:20;86355.00;;;8.43;46.73
21623;BME280;10973;46.706;12.340;2023-04-01T19:25:54;86361.78;;;8.30;47.62
21623;BME280;10973;46.706;12.340;2023-04-01T19:36:50;86374.97;;;8.05;48.16
21623;BME280;10973;46.706;12.340;2023-04-01T19:39:50;86369.00;;;7.98;47.95
21623;BME280;10973;46.706;12.340;2023-04-01T19:43:02;86379.50;;;7.90;47.95
21623;BME280;10973;46.706;12.340;2023-04-01T19:51:54;86376.91;;;7.80;48.39
21623;BME280;10973;46.706;12.340;2023-04-01T20:00:51;86380.31;;;7.70;48.36
21623;BME280;10973;46.706;12.340;2023-04-01T20:15:30;86389.66;;;7.50;48.89
21623;BME280;10973;46.706;12.340;2023-04-01T20:20:53;86393.41;;;7.42;49.26
21623;BME280;10973;46.706;12.340;2023-04-01T20:24:00;86387.78;;;7.36;49.01
21623;BME280;10973;46.706;12.340;2023-04-01T20:26:40;86394.56;;;7.34;48.91
21623;BME280;10973;46.706;12.340;2023-04-01T20:37:40;86399.75;;;7.09;49.81
21623;BME280;10973;46.706;12.340;2023-04-01T20:49:33;86406.50;;;7.03;49.83
21623;BME280;10973;46.706;12.340;2023-04-01T20:55:19;86407.97;;;7.00;49.60
21623;BME280;10973;46.706;12.340;2023-04-01T20:58:09;86415.47;;;6.95;49.65
21623;BME280;10973;46.706;12.340;2023-04-01T21:13:30;86415.41;;;6.70;49.70
21623;BME280;10973;46.706;12.340;2023-04-01T21:16:31;86415.41;;;6.70;49.65
21623;BME280;10973;46.706;12.340;2023-04-01T21:22:11;86424.72;;;6.57;49.64
21623;BME280;10973;46.706;12.340;2023-04-01T21:27:37;86423.19;;;6.53;49.77
21623;BME280;10973;46.706;12.340;2023-04-01T21:40:23;86433.94;;;6.26;50.90
21623;BME280;10973;46.706;12.340;2023-04-01T21:50:04;86426.06;;;6.19;50.60
21623;BME280;10973;46.706;12.340;2023-04-01T21:56:18;86436.88;;;6.14;50.84
21623;BME280;10973;46.706;12.340;2023-04-01T22:02:09;86446.63;;;6.17;50.93
21623;BME280;10973;46.706;12.340;2023-04-01T22:07:52;86441.38;;;6.21;50.94
21623;BME280;10973;46.706;12.340;2023-04-01T22:13:25;86435.78;;;6.15;50.65
21623;BME280;10973;46.706;12.340;2023-04-01T22:16:48;86439.06;;;6.09;51.09
21623;BME280;10973;46.706;12.340;2023-04-01T22:19:34;86431.25;;;6.12;51.10
21623;BME280;10973;46.706;12.340;2023-04-01T22:22:55;86436.50;;;6.16;51.08
21623;BME280;10973;46.706;12.340;2023-04-01T22:26:00;86431.66;;;6.18;51.13
21623;BME280;10973;46.706;12.340;2023-04-01T22:31:46;86436.13;;;6.10;51.05
21623;BME280;10973;46.706;12.340;2023-04-01T22:34:46;86439.44;;;6.04;51.34
21623;BME280;10973;46.706;12.340;2023-04-01T22:40:27;86438.66;;;5.93;51.98
21623;BME280;10973;46.706;12.340;2023-04-01T22:43:50;86437.13;;;5.92;52.26
21623;BME280;10973;46.706;12.340;2023-04-01T22:46:48;86436.75;;;5.90;51.79
21623;BME280;10973;46.706;12.340;2023-04-01T22:49:37;86443.44;;;5.87;52.06
21623;BME280;10973;46.706;12.340;2023-04-01T22:52:38;86446.44;;;5.89;52.00
21623;BME280;10973;46.706;12.340;2023-04-01T22:58:37;86448.69;;;5.87;52.38
21623;BME280;10973;46.706;12.340;2023-04-01T23:01:03;86455.81;;;5.90;52.35
21623;BME280;10973;46.706;12.340;2023-04-01T23:03:36;86444.97;;;5.92;52.46
21623;BME280;10973;46.706;12.340;2023-04-01T23:06:09;86450.97;;;5.96;52.38
21623;BME280;10973;46.706;12.340;2023-04-01T23:11:58;86446.50;;;6.00;52.55
21623;BME280;10973;46.706;12.340;2023-04-01T23:15:00;86448.00;;;6.01;52.39
21623;BME280;10973;46.706;12.340;2023-04-01T23:18:00;86451.00;;;5.99;52.13
21623;BME280;10973;46.706;12.340;2023-04-01T23:26:50;86452.47;;;6.00;52.43
21623;BME280;10973;46.706;12.340;2023-04-01T23:29:21;86451.72;;;6.00;52.17
21623;BME280;10973;46.706;12.340;2023-04-01T23:31:59;86456.22;;;5.99;52.11
21623;BME280;10973;46.706;12.340;2023-04-01T23:34:38;86449.88;;;5.97;52.31
21623;BME280;10973;46.706;12.340;2023-04-01T23:37:10;86458.09;;;5.99;52.42
21623;BME280;10973;46.706;12.340;2023-04-01T23:39:51;86448.34;;;5.96;52.26
21623;BME280;10973;46.706;12.340;2023-04-01T23:42:33;86458.06;;;5.95;52.50
21623;BME280;10973;46.706;12.340;2023-04-01T23:45:16;86453.97;;;5.98;52.43
21623;BME280;10973;46.706;12.340;2023-04-01T23:47:47;86455.84;;;5.97;52.17
21623;BME280;10973;46.706;12.340;2023-04-01T23:50:23;86455.81;;;5.94;52.03
21623;BME280;10973;46.706;12.340;2023-04-01T23:53:02;86454.28;;;5.86;52.29
21623;BME280;10973;46.706;12.340;2023-04-01T23:55:33;86453.91;;;5.87;52.66
21623;BME280;10973;46.706;12.340;2023-04-01T23:58:13;86447.94;;;5.87;52.47
